Time;durP1;ratioP1;P1;durP2;ratioP2;P2;SDS_P1;SDS_P2;PMS_P1;PMS_P2;Temp;Humidity;BMP_temperature;BMP_pressure;BME280_temperature;BME280_humidity;BME280_pressure;Samples;Min_cycle;Max_cycle;Signal;HPM_P1;HPM_P2
2021/12/11 00:01:38;;;;;;;28.70;5.05;;;;;;;;;;4975623;28;20413;-21
2021/12/11 00:04:06;;;;;;;29.25;4.38;;;;;;;;;;4975262;28;20039;-22
2021/12/11 00:06:34;;;;;;;26.27;4.53;;;;;;;;;;4975548;28;20027;-22
2021/12/11 00:09:04;;;;;;;23.60;5.65;;;;;;;;;;4958523;28;20034;-21
2021/12/11 00:11:33;;;;;;;29.95;6.22;;;;;;;;;;4975767;28;20031;-23
2021/12/11 00:14:01;;;;;;;27.83;4.82;;;;;;;;;;4975384;28;20034;-22
2021/12/11 00:16:29;;;;;;;32.05;6.38;;;;;;;;;;4975582;28;20045;-22
2021/12/11 00:18:57;;;;;;;25.67;4.13;;;;;;;;;;4975440;28;20031;-23
2021/12/11 00:21:24;;;;;;;20.50;4.25;;;;;;;;;;4975410;28;20031;-22
2021/12/11 00:23:56;;;;;;;23.30;4.00;;;;;;;;;;4975275;28;20109;-23
2021/12/11 00:26:30;;;;;;;23.80;4.13;;;;;;;;;;4975910;28;20027;-23
2021/12/11 00:28:57;;;;;;;33.20;5.65;;;;;;;;;;4975362;28;20027;-23
2021/12/11 00:31:23;;;;;;;20.85;3.92;;;;;;;;;;4975313;28;20022;-22
2021/12/11 00:33:51;;;;;;;27.17;4.15;;;;;;;;;;4975487;28;20061;-22
2021/12/11 00:36:18;;;;;;;25.35;3.30;;;;;;;;;;4958576;28;20038;-23
2021/12/11 00:38:48;;;;;;;27.13;4.47;;;;;;;;;;4975482;28;20030;-22
2021/12/11 00:41:15;;;;;;;36.72;4.75;;;;;;;;;;4975227;28;20018;-23
2021/12/11 00:43:42;;;;;;;19.98;3.65;;;;;;;;;;4975623;28;20030;-22
2021/12/11 00:46:12;;;;;;;21.45;4.13;;;;;;;;;;4975463;28;20021;-22
2021/12/11 00:48:38;;;;;;;26.08;3.97;;;;;;;;;;4975190;28;20070;-22
2021/12/11 00:51:09;;;;;;;33.83;5.28;;;;;;;;;;4976983;28;20034;-22
2021/12/11 00:53:56;;;;;;;30.60;4.82;;;;;;;;;;4978884;28;20109;-22
2021/12/11 00:56:24;;;;;;;19.27;4.13;;;;;;;;;;4979069;28;20030;-22
2021/12/11 00:58:52;;;;;;;24.00;4.53;;;;;;;;;;4978819;28;20061;-22
2021/12/11 01:01:23;;;;;;;23.92;4.68;;;;;;;;;;4978781;28;20574;-21
2021/12/11 01:03:52;;;;;;;20.65;4.93;;;;;;;;;;4961432;28;20138;-22
2021/12/11 01:06:45;;;;;;;24.17;3.72;;;;;;;;;;4978609;28;20065;-21
2021/12/11 01:09:18;;;;;;;21.02;4.70;;;;;;;;;;4968191;28;20038;-22
2021/12/11 01:11:47;;;;;;;24.80;3.85;;;;;;;;;;4978764;28;20026;-22
2021/12/11 01:14:23;;;;;;;27.35;3.97;;;;;;;;;;4978409;28;20035;-23
2021/12/11 01:16:59;;;;;;;19.98;3.72;;;;;;;;;;4978647;28;20035;-22
2021/12/11 01:19:28;;;;;;;24.58;4.28;;;;;;;;;;4978715;28;20026;-22
2021/12/11 01:21:58;;;;;;;22.27;3.88;;;;;;;;;;4978742;28;20038;-22
2021/12/11 01:24:42;;;;;;;23.73;3.72;;;;;;;;;;4978292;28;20034;-22
2021/12/11 01:27:10;;;;;;;18.67;3.63;;;;;;;;;;4978520;28;20046;-22
2021/12/11 01:29:37;;;;;;;17.38;2.88;;;;;;;;;;4978448;28;20109;-22
2021/12/11 01:32:05;;;;;;;33.22;6.70;;;;;;;;;;4978092;28;20343;-25
2021/12/11 01:34:32;;;;;;;15.77;3.90;;;;;;;;;;4978320;28;20038;-22
2021/12/11 01:36:59;;;;;;;20.15;4.03;;;;;;;;;;4978709;28;20205;-21
2021/12/11 01:39:28;;;;;;;22.17;4.50;;;;;;;;;;4978053;28;20094;-21
2021/12/11 01:41:55;;;;;;;13.85;3.38;;;;;;;;;;4977887;28;20051;-22
2021/12/11 01:44:26;;;;;;;14.23;3.90;;;;;;;;;;4977911;28;20023;-22
2021/12/11 01:46:58;;;;;;;18.90;3.67;;;;;;;;;;4978206;28;20034;-23
2021/12/11 01:49:24;;;;;;;24.10;4.32;;;;;;;;;;4978360;28;20037;-23
2021/12/11 01:51:56;;;;;;;17.48;3.38;;;;;;;;;;4977665;28;20038;-22
2021/12/11 01:54:32;;;;;;;15.90;4.18;;;;;;;;;;4978028;28;20119;-22
2021/12/11 01:57:01;;;;;;;20.40;3.67;;;;;;;;;;4977917;28;20027;-22
2021/12/11 01:59:37;;;;;;;22.08;3.58;;;;;;;;;;4977655;28;20058;-22
2021/12/11 02:02:18;;;;;;;20.92;3.58;;;;;;;;;;4976425;28;20394;-22
2021/12/11 02:04:46;;;;;;;18.40;3.45;;;;;;;;;;4977376;28;20047;-23
2021/12/11 02:07:14;;;;;;;17.25;3.70;;;;;;;;;;4977802;28;20081;-22
2021/12/11 02:09:44;;;;;;;16.80;3.47;;;;;;;;;;4977456;28;20113;-22
2021/12/11 02:12:13;;;;;;;15.57;3.93;;;;;;;;;;4977683;28;20109;-21
2021/12/11 02:14:44;;;;;;;13.55;3.50;;;;;;;;;;4960354;28;20050;-22
2021/12/11 02:17:10;;;;;;;;;;;;;;;;;;4978003;28;20105;-23
2021/12/11 02:19:39;;;;;;;14.63;4.82;;;;;;;;;;4977299;28;19906;-22
2021/12/11 02:22:15;;;;;;;14.30;3.90;;;;;;;;;;4977149;28;20492;-22
2021/12/11 02:24:41;;;;;;;15.30;3.17;;;;;;;;;;4977190;28;20466;-22
2021/12/11 02:27:09;;;;;;;24.30;3.80;;;;;;;;;;4977417;28;20056;-22
2021/12/11 02:29:39;;;;;;;19.65;3.90;;;;;;;;;;4977409;28;20030;-22
2021/12/11 02:32:10;;;;;;;11.07;3.00;;;;;;;;;;4977222;28;20026;-22
2021/12/11 02:34:47;;;;;;;15.68;5.03;;;;;;;;;;4977337;28;20026;-22
2021/12/11 02:37:40;;;;;;;17.45;4.00;;;;;;;;;;4976911;28;20109;-21
2021/12/11 02:40:09;;;;;;;19.10;3.55;;;;;;;;;;4973205;28;20046;-23
2021/12/11 02:42:40;;;;;;;25.60;4.45;;;;;;;;;;4976848;28;20490;-23
2021/12/11 02:45:13;;;;;;;15.82;3.30;;;;;;;;;;4977087;28;20057;-22
2021/12/11 02:47:41;;;;;;;18.33;2.70;;;;;;;;;;4977555;28;20089;-22
2021/12/11 02:50:21;;;;;;;15.07;3.30;;;;;;;;;;4976748;28;20070;-23
2021/12/11 02:52:47;;;;;;;22.00;3.38;;;;;;;;;;4976713;28;20343;-21
2021/12/11 02:55:19;;;;;;;17.77;3.38;;;;;;;;;;4976584;28;20027;-22
2021/12/11 02:57:48;;;;;;;20.35;3.63;;;;;;;;;;4976501;28;20061;-22
2021/12/11 03:00:18;;;;;;;15.55;2.53;;;;;;;;;;4976546;28;20034;-22
2021/12/11 03:02:48;;;;;;;9.35;2.63;;;;;;;;;;4976458;28;20058;-22
2021/12/11 03:05:18;;;;;;;13.25;3.22;;;;;;;;;;4976433;28;20089;-23
2021/12/11 03:07:50;;;;;;;13.00;3.33;;;;;;;;;;4976916;28;20374;-23
2021/12/11 03:10:18;;;;;;;17.90;4.35;;;;;;;;;;4976693;28;20023;-23
2021/12/11 03:12:45;;;;;;;14.27;3.10;;;;;;;;;;4976327;28;20350;-21
2021/12/11 03:15:12;;;;;;;18.75;3.17;;;;;;;;;;4976222;28;20109;-23
2021/12/11 03:17:39;;;;;;;18.95;3.30;;;;;;;;;;4976406;28;20066;-21
2021/12/11 03:20:07;;;;;;;12.40;4.15;;;;;;;;;;4976478;28;20027;-22
2021/12/11 03:22:34;;;;;;;20.02;3.30;;;;;;;;;;4976244;28;20038;-22
2021/12/11 03:25:03;;;;;;;19.45;2.97;;;;;;;;;;4976014;28;20484;-22
2021/12/11 03:27:29;;;;;;;21.92;3.15;;;;;;;;;;4976360;28;20047;-22
2021/12/11 03:29:56;;;;;;;17.63;3.25;;;;;;;;;;4976311;28;20109;-22
2021/12/11 03:32:23;;;;;;;8.73;2.67;;;;;;;;;;4976137;28;20035;-23
2021/12/11 03:34:50;;;;;;;23.48;4.07;;;;;;;;;;4976230;28;20030;-22
2021/12/11 03:37:18;;;;;;;15.18;2.45;;;;;;;;;;4975850;28;20035;-22
2021/12/11 03:39:45;;;;;;;19.45;2.83;;;;;;;;;;4976145;28;20023;-22
2021/12/11 03:42:17;;;;;;;10.27;3.00;;;;;;;;;;4975747;28;20027;-22
2021/12/11 03:44:45;;;;;;;19.98;3.95;;;;;;;;;;4976049;28;20027;-26
2021/12/11 03:47:15;;;;;;;10.57;2.50;;;;;;;;;;4975735;28;20031;-22
2021/12/11 03:49:41;;;;;;;19.57;3.00;;;;;;;;;;4958705;28;20093;-22
2021/12/11 03:52:10;;;;;;;10.85;2.78;;;;;;;;;;4975639;28;20050;-22
2021/12/11 03:54:37;;;;;;;19.98;3.38;;;;;;;;;;4975918;28;20026;-22
2021/12/11 03:57:06;;;;;;;14.38;4.35;;;;;;;;;;4958742;28;20027;-22
2021/12/11 03:59:32;;;;;;;6.32;2.90;;;;;;;;;;4975883;28;20031;-22
2021/12/11 04:02:03;;;;;;;11.30;2.58;;;;;;;;;;4975825;28;20030;-22
2021/12/11 04:04:36;;;;;;;7.57;2.30;;;;;;;;;;4975439;28;20082;-22
2021/12/11 04:07:06;;;;;;;7.05;3.30;;;;;;;;;;4975788;28;20018;-22
2021/12/11 04:09:33;;;;;;;;;;;;;;;;;;4976169;28;20054;-22
2021/12/11 04:12:00;;;;;;;8.48;2.03;;;;;;;;;;4975668;28;20360;-22
2021/12/11 04:14:28;;;;;;;13.27;2.72;;;;;;;;;;4974988;28;20046;-22
2021/12/11 04:16:56;;;;;;;14.63;3.17;;;;;;;;;;4975326;28;20121;-22
2021/12/11 04:19:22;;;;;;;4.47;1.88;;;;;;;;;;4975645;28;20038;-23
2021/12/11 04:21:49;;;;;;;13.77;2.80;;;;;;;;;;4975862;28;20027;-22
2021/12/11 04:24:17;;;;;;;9.48;2.95;;;;;;;;;;4975891;28;20081;-22
2021/12/11 04:26:45;;;;;;;14.68;2.63;;;;;;;;;;4978671;28;20031;-23
2021/12/11 04:29:12;;;;;;;9.95;2.30;;;;;;;;;;4979443;28;20039;-21
2021/12/11 04:31:42;;;;;;;14.18;2.13;;;;;;;;;;4979250;28;20526;-21
2021/12/11 04:34:09;;;;;;;10.13;2.83;;;;;;;;;;4979500;28;20038;-22
2021/12/11 04:36:40;;;;;;;15.60;3.25;;;;;;;;;;4978963;28;20269;-21
2021/12/11 04:39:08;;;;;;;9.75;2.67;;;;;;;;;;4979638;28;20027;-21
2021/12/11 04:41:41;;;;;;;9.07;2.55;;;;;;;;;;4979079;28;20023;-22
2021/12/11 04:44:10;;;;;;;12.23;2.35;;;;;;;;;;4979020;28;20023;-21
2021/12/11 04:46:37;;;;;;;11.05;2.47;;;;;;;;;;4978964;28;20061;-22
2021/12/11 05:05:10;;;;;;;7.68;2.88;;;;;;;;;;4978856;28;20059;-22
2021/12/11 05:07:44;;;;;;;9.23;2.03;;;;;;;;;;4978688;28;20097;-22
2021/12/11 05:10:24;;;;;;;9.57;3.08;;;;;;;;;;4978521;28;20351;-21
2021/12/11 05:12:53;;;;;;;9.55;2.40;;;;;;;;;;4978492;28;20403;-26
2021/12/11 05:15:23;;;;;;;9.50;2.20;;;;;;;;;;4978858;28;20023;-22
2021/12/11 05:17:50;;;;;;;14.48;3.53;;;;;;;;;;4978252;28;20121;-22
2021/12/11 05:20:19;;;;;;;11.38;2.35;;;;;;;;;;4978118;28;20066;-24
2021/12/11 05:22:45;;;;;;;13.02;4.03;;;;;;;;;;4978096;28;20462;-22
2021/12/11 05:25:12;;;;;;;9.60;1.73;;;;;;;;;;4978349;28;20031;-21
2021/12/11 05:27:43;;;;;;;10.63;2.83;;;;;;;;;;4978217;28;20042;-22
2021/12/11 05:30:13;;;;;;;15.07;2.80;;;;;;;;;;4978236;28;20047;-21
2021/12/11 05:32:39;;;;;;;13.90;3.55;;;;;;;;;;4977925;28;20023;-22
2021/12/11 05:35:06;;;;;;;11.13;2.53;;;;;;;;;;4961144;28;20518;-22
2021/12/11 05:37:33;;;;;;;14.05;3.65;;;;;;;;;;4978306;28;20041;-21
2021/12/11 05:40:00;;;;;;;9.07;2.72;;;;;;;;;;4978500;28;20202;-22
2021/12/11 05:42:26;;;;;;;13.45;2.63;;;;;;;;;;4978318;28;20121;-21
2021/12/11 05:44:52;;;;;;;14.15;3.40;;;;;;;;;;4960938;28;20458;-21
2021/12/11 05:47:20;;;;;;;15.27;3.90;;;;;;;;;;4977970;28;20118;-21
2021/12/11 05:49:47;;;;;;;11.05;4.00;;;;;;;;;;4977858;28;20030;-21
2021/12/11 05:52:14;;;;;;;11.73;2.28;;;;;;;;;;4977700;28;20363;-20
2021/12/11 05:54:43;;;;;;;12.93;3.35;;;;;;;;;;4978074;28;20142;-21
2021/12/11 05:57:11;;;;;;;14.27;3.45;;;;;;;;;;4977493;28;20062;-22
2021/12/11 05:59:38;;;;;;;23.77;3.45;;;;;;;;;;4977787;28;20031;-21
2021/12/11 06:02:09;;;;;;;11.68;2.40;;;;;;;;;;4977689;28;20023;-22
2021/12/11 06:04:37;;;;;;;11.10;3.28;;;;;;;;;;4977420;28;20522;-22
2021/12/11 06:07:05;;;;;;;21.02;2.38;;;;;;;;;;4977514;28;20104;-22
2021/12/11 06:09:31;;;;;;;15.93;3.58;;;;;;;;;;4977737;28;20114;-21
2021/12/11 06:12:05;;;;;;;12.65;2.60;;;;;;;;;;4977665;28;20034;-22
2021/12/11 06:14:31;;;;;;;12.13;3.08;;;;;;;;;;4977982;28;20041;-22
2021/12/11 06:16:58;;;;;;;33.22;3.17;;;;;;;;;;4977590;28;20412;-21
2021/12/11 06:19:27;;;;;;;14.13;3.20;;;;;;;;;;4977352;28;20103;-22
2021/12/11 06:21:54;;;;;;;25.98;3.40;;;;;;;;;;4977119;28;20033;-22
2021/12/11 06:24:22;;;;;;;19.50;3.40;;;;;;;;;;4977530;28;20405;-22
2021/12/11 06:26:50;;;;;;;13.40;3.53;;;;;;;;;;4977236;28;20030;-23
2021/12/11 06:29:16;;;;;;;14.82;2.92;;;;;;;;;;4977268;28;20026;-22
2021/12/11 06:31:44;;;;;;;13.90;2.67;;;;;;;;;;4977775;28;20440;-22
2021/12/11 06:34:10;;;;;;;27.50;4.13;;;;;;;;;;4977041;28;20046;-24
2021/12/11 06:36:37;;;;;;;19.15;4.47;;;;;;;;;;4976950;28;20037;-23
2021/12/11 06:39:10;;;;;;;16.40;3.90;;;;;;;;;;4959858;28;20023;-22
2021/12/11 06:41:38;;;;;;;33.13;3.83;;;;;;;;;;4976968;28;20373;-22
2021/12/11 06:44:04;;;;;;;25.58;2.83;;;;;;;;;;4976768;28;20466;-22
2021/12/11 06:46:32;;;;;;;21.85;2.28;;;;;;;;;;4976897;28;20034;-23
2021/12/11 06:48:59;;;;;;;14.60;3.53;;;;;;;;;;4976346;28;20363;-22
2021/12/11 06:51:25;;;;;;;25.25;5.70;;;;;;;;;;4976734;28;20404;-23
2021/12/11 06:53:54;;;;;;;17.95;2.90;;;;;;;;;;4976546;28;20027;-23
2021/12/11 06:56:22;;;;;;;14.82;2.70;;;;;;;;;;4959515;28;20038;-22
2021/12/11 06:58:48;;;;;;;11.98;2.42;;;;;;;;;;4976679;28;20070;-22
2021/12/11 07:01:15;;;;;;;21.35;2.92;;;;;;;;;;4976537;28;20027;-23
2021/12/11 07:03:41;;;;;;;12.90;2.92;;;;;;;;;;4976302;28;20042;-23
2021/12/11 07:06:08;;;;;;;15.43;3.45;;;;;;;;;;4977009;28;20038;-20
2021/12/11 07:08:36;;;;;;;19.38;4.32;;;;;;;;;;4976856;28;20027;-21
2021/12/11 07:11:03;;;;;;;27.95;4.45;;;;;;;;;;4976253;28;20031;-20
2021/12/11 07:13:30;;;;;;;28.63;4.45;;;;;;;;;;4976813;28;20035;-22
2021/12/11 07:15:56;;;;;;;33.95;4.43;;;;;;;;;;4976364;28;20023;-21
2021/12/11 07:18:23;;;;;;;19.50;4.10;;;;;;;;;;4976269;28;20031;-21
2021/12/11 07:20:50;;;;;;;27.02;4.45;;;;;;;;;;4976234;28;20023;-21
2021/12/11 07:23:16;;;;;;;16.98;3.10;;;;;;;;;;4975806;28;20050;-21
2021/12/11 07:26:00;;;;;;;21.50;4.07;;;;;;;;;;4975904;28;20023;-22
2021/12/11 07:28:27;;;;;;;26.33;3.97;;;;;;;;;;4976056;28;20045;-21
2021/12/11 07:30:54;;;;;;;25.77;3.95;;;;;;;;;;4976263;28;20038;-21
2021/12/11 07:33:21;;;;;;;25.08;3.92;;;;;;;;;;4976161;28;20039;-30
2021/12/11 07:35:48;;;;;;;15.18;3.30;;;;;;;;;;4976092;28;20026;-22
2021/12/11 07:38:15;;;;;;;15.80;3.15;;;;;;;;;;4975547;28;20085;-23
2021/12/11 07:40:43;;;;;;;21.23;4.55;;;;;;;;;;4975883;28;20103;-23
2021/12/11 07:43:10;;;;;;;26.35;4.20;;;;;;;;;;4975540;28;20026;-22
2021/12/11 07:45:38;;;;;;;23.30;4.25;;;;;;;;;;4976103;28;20033;-22
2021/12/11 07:48:04;;;;;;;31.50;4.07;;;;;;;;;;4975912;28;20035;-23
2021/12/11 07:50:32;;;;;;;34.65;3.78;;;;;;;;;;4975328;28;20031;-22
2021/12/11 07:52:59;;;;;;;21.95;3.15;;;;;;;;;;4975289;28;20039;-22
2021/12/11 07:55:25;;;;;;;27.77;4.28;;;;;;;;;;4975339;28;20049;-23
2021/12/11 07:57:52;;;;;;;22.75;3.85;;;;;;;;;;4975568;28;20034;-23
2021/12/11 08:00:20;;;;;;;14.32;2.95;;;;;;;;;;4975642;28;20027;-22
2021/12/11 08:02:46;;;;;;;20.67;2.90;;;;;;;;;;4975139;28;20089;-24
2021/12/11 08:05:13;;;;;;;25.20;4.25;;;;;;;;;;4975785;28;20027;-25
2021/12/11 08:07:39;;;;;;;26.08;4.13;;;;;;;;;;4975731;28;20050;-23
2021/12/11 08:10:07;;;;;;;19.88;4.32;;;;;;;;;;4975695;28;20367;-22
2021/12/11 08:12:33;;;;;;;16.75;4.15;;;;;;;;;;4975219;28;20043;-22
2021/12/11 08:15:00;;;;;;;19.95;3.35;;;;;;;;;;4975279;28;20023;-22
2021/12/11 08:17:26;;;;;;;18.55;4.35;;;;;;;;;;4975781;28;20037;-22
2021/12/11 08:19:52;;;;;;;27.90;4.13;;;;;;;;;;4975242;28;20027;-22
2021/12/11 08:22:18;;;;;;;30.20;5.82;;;;;;;;;;4975257;28;20022;-23
2021/12/11 08:24:44;;;;;;;19.90;3.70;;;;;;;;;;4975836;28;20046;-22
2021/12/11 08:27:14;;;;;;;15.75;3.45;;;;;;;;;;4975735;28;20105;-22
2021/12/11 08:29:41;;;;;;;32.08;4.10;;;;;;;;;;4975857;28;20085;-22
2021/12/11 08:32:08;;;;;;;20.52;3.78;;;;;;;;;;4975223;28;20034;-22
2021/12/11 08:34:34;;;;;;;18.63;4.28;;;;;;;;;;4975094;28;20031;-22
2021/12/11 08:37:01;;;;;;;28.10;4.68;;;;;;;;;;4975120;28;20042;-22
2021/12/11 08:39:28;;;;;;;24.77;3.60;;;;;;;;;;4975275;28;20027;-22
2021/12/11 08:41:56;;;;;;;29.42;4.03;;;;;;;;;;4975296;28;20030;-23
2021/12/11 08:44:24;;;;;;;22.35;4.22;;;;;;;;;;4975212;28;20457;-24
2021/12/11 08:46:52;;;;;;;29.67;4.32;;;;;;;;;;4975137;28;20089;-21
2021/12/11 08:49:22;;;;;;;21.85;3.72;;;;;;;;;;4975343;28;20042;-23
2021/12/11 08:51:51;;;;;;;16.08;3.25;;;;;;;;;;4974981;28;20057;-25
2021/12/11 08:54:19;;;;;;;18.52;4.32;;;;;;;;;;4975045;28;20035;-22
2021/12/11 08:56:45;;;;;;;28.52;3.75;;;;;;;;;;4974991;28;20030;-22
2021/12/11 08:59:14;;;;;;;29.45;4.55;;;;;;;;;;4975222;28;20022;-22
2021/12/11 09:01:53;;;;;;;24.25;6.65;;;;;;;;;;4974853;28;20026;-23
2021/12/11 09:04:33;;;;;;;16.55;5.47;;;;;;;;;;4974956;28;20047;-22
2021/12/11 09:07:05;;;;;;;26.35;5.10;;;;;;;;;;4975169;28;20027;-22
2021/12/11 09:09:52;;;;;;;27.17;4.18;;;;;;;;;;4975062;28;20031;-22
2021/12/11 09:12:21;;;;;;;32.22;4.65;;;;;;;;;;4977385;28;20031;-22
2021/12/11 09:14:55;;;;;;;31.75;6.13;;;;;;;;;;4978136;28;20454;-22
2021/12/11 09:17:24;;;;;;;33.17;4.07;;;;;;;;;;4978202;28;20026;-22
2021/12/11 09:20:03;;;;;;;24.17;3.95;;;;;;;;;;4978137;28;20023;-22
2021/12/11 09:22:34;;;;;;;25.23;3.47;;;;;;;;;;4978089;28;20019;-22
2021/12/11 09:25:04;;;;;;;21.20;5.03;;;;;;;;;;4978417;28;20033;-22
2021/12/11 09:27:30;;;;;;;17.02;3.80;;;;;;;;;;4978606;28;20055;-22
2021/12/11 09:30:04;;;;;;;25.95;4.10;;;;;;;;;;4978223;28;20489;-24
2021/12/11 09:32:33;;;;;;;25.98;4.05;;;;;;;;;;4977970;28;20096;-22
2021/12/11 09:35:05;;;;;;;17.85;3.92;;;;;;;;;;4978007;28;20098;-21
2021/12/11 09:37:31;;;;;;;25.88;4.68;;;;;;;;;;4978427;28;20488;-22
2021/12/11 09:40:12;;;;;;;17.88;3.58;;;;;;;;;;4960884;28;20473;-21
2021/12/11 09:42:38;;;;;;;24.95;6.82;;;;;;;;;;4977880;28;20030;-21
2021/12/11 09:45:07;;;;;;;15.90;3.83;;;;;;;;;;4960850;28;20034;-21
2021/12/11 09:47:38;;;;;;;23.35;3.83;;;;;;;;;;4978270;28;20398;-22
2021/12/11 09:50:11;;;;;;;16.85;3.53;;;;;;;;;;4978534;28;20361;-21
2021/12/11 09:52:39;;;;;;;17.42;4.22;;;;;;;;;;4961087;28;20046;-22
2021/12/11 09:55:07;;;;;;;35.17;5.53;;;;;;;;;;4978013;28;20030;-22
2021/12/11 09:57:37;;;;;;;30.25;6.13;;;;;;;;;;4977593;28;20058;-22
2021/12/11 10:00:16;;;;;;;33.38;4.25;;;;;;;;;;4960591;28;20417;-21
2021/12/11 10:02:42;;;;;;;38.95;5.88;;;;;;;;;;4960415;28;20031;-21
2021/12/11 10:05:32;;;;;;;28.65;5.32;;;;;;;;;;4977808;28;20045;-22
2021/12/11 10:10:47;;;;;;;34.33;4.60;;;;;;;;;;4977685;28;20058;-21
2021/12/11 10:13:13;;;;;;;27.20;4.00;;;;;;;;;;4977200;28;20089;-22
2021/12/11 10:15:41;;;;;;;25.75;4.40;;;;;;;;;;4977064;28;20465;-23
2021/12/11 10:18:12;;;;;;;32.15;5.25;;;;;;;;;;4977751;28;20035;-22
2021/12/11 10:20:41;;;;;;;30.15;4.25;;;;;;;;;;4977192;28;20091;-22
2021/12/11 10:23:09;;;;;;;24.58;5.40;;;;;;;;;;4975731;28;20050;-22
2021/12/11 10:25:36;;;;;;;38.65;4.25;;;;;;;;;;4977204;28;20054;-22
2021/12/11 10:28:05;;;;;;;26.00;4.47;;;;;;;;;;4977247;28;20027;-21
2021/12/11 10:30:33;;;;;;;28.10;6.18;;;;;;;;;;4976857;28;20117;-21
2021/12/11 10:33:01;;;;;;;26.83;4.45;;;;;;;;;;4976894;28;20359;-21
2021/12/11 10:35:31;;;;;;;29.27;4.88;;;;;;;;;;4976931;28;20031;-22
2021/12/11 10:38:00;;;;;;;32.10;3.50;;;;;;;;;;4977007;28;20053;-22
2021/12/11 10:40:31;;;;;;;25.67;4.55;;;;;;;;;;4977745;28;20031;-23
2021/12/11 10:43:00;;;;;;;41.33;8.20;;;;;;;;;;4976822;28;20110;-22
2021/12/11 10:45:27;;;;;;;32.10;5.22;;;;;;;;;;4976962;28;20058;-22
2021/12/11 10:48:00;;;;;;;45.17;6.30;;;;;;;;;;4976895;28;20052;-23
2021/12/11 10:50:34;;;;;;;27.85;4.57;;;;;;;;;;4976863;28;20121;-21
2021/12/11 10:53:01;;;;;;;40.78;5.32;;;;;;;;;;4976606;28;20039;-23
2021/12/11 10:55:30;;;;;;;42.95;6.20;;;;;;;;;;4976370;28;20027;-23
2021/12/11 10:57:57;;;;;;;33.75;3.88;;;;;;;;;;4976321;28;20031;-22
2021/12/11 11:00:28;;;;;;;30.50;5.07;;;;;;;;;;4976499;28;20019;-22
2021/12/11 11:02:55;;;;;;;24.63;4.83;;;;;;;;;;4976307;28;20038;-22
2021/12/11 11:05:23;;;;;;;23.33;5.03;;;;;;;;;;4976620;28;20042;-23
2021/12/11 11:07:49;;;;;;;23.88;3.95;;;;;;;;;;4976185;28;20042;-22
2021/12/11 11:10:18;;;;;;;25.33;4.85;;;;;;;;;;4976217;28;20076;-22
2021/12/11 11:12:44;;;;;;;31.02;4.15;;;;;;;;;;4975900;28;20066;-23
2021/12/11 11:15:11;;;;;;;26.58;5.50;;;;;;;;;;4976190;28;20031;-22
2021/12/11 11:17:37;;;;;;;31.95;4.78;;;;;;;;;;4958921;28;20103;-22
2021/12/11 11:20:09;;;;;;;21.17;4.70;;;;;;;;;;4976227;28;20049;-22
2021/12/11 11:22:36;;;;;;;21.58;6.15;;;;;;;;;;4975861;28;20034;-23
2021/12/11 11:25:10;;;;;;;32.50;5.60;;;;;;;;;;4975850;28;20030;-22
2021/12/11 11:27:37;;;;;;;25.52;4.53;;;;;;;;;;4976276;28;20419;-23
2021/12/11 11:30:09;;;;;;;27.63;4.03;;;;;;;;;;4976112;28;20177;-22
2021/12/11 11:32:35;;;;;;;26.95;5.05;;;;;;;;;;4975783;28;20106;-22
2021/12/11 11:35:06;;;;;;;28.27;4.28;;;;;;;;;;4975569;28;20058;-24
2021/12/11 11:37:35;;;;;;;51.58;5.65;;;;;;;;;;4975728;28;20038;-22
2021/12/11 11:40:03;;;;;;;48.55;7.30;;;;;;;;;;4975967;28;20031;-23
2021/12/11 11:42:29;;;;;;;29.33;4.85;;;;;;;;;;4975834;28;20131;-26
2021/12/11 11:44:55;;;;;;;44.42;6.18;;;;;;;;;;4975494;28;20093;-22
2021/12/11 11:47:22;;;;;;;30.23;4.18;;;;;;;;;;4975700;28;20069;-22
2021/12/11 11:49:55;;;;;;;44.80;5.38;;;;;;;;;;4975412;28;20066;-22
2021/12/11 11:52:23;;;;;;;33.08;5.97;;;;;;;;;;4975550;28;20114;-22
2021/12/11 11:54:51;;;;;;;38.50;4.82;;;;;;;;;;4975144;28;20478;-23
2021/12/11 11:57:23;;;;;;;33.17;4.70;;;;;;;;;;4975210;28;20046;-23
2021/12/11 11:59:51;;;;;;;28.50;5.40;;;;;;;;;;4975737;28;20122;-24
2021/12/11 12:02:19;;;;;;;31.40;5.32;;;;;;;;;;4975659;28;20355;-22
2021/12/11 12:04:47;;;;;;;24.30;4.55;;;;;;;;;;4975281;28;20510;-22
2021/12/11 12:07:13;;;;;;;31.50;4.15;;;;;;;;;;4975726;28;20110;-22
2021/12/11 12:09:44;;;;;;;28.52;5.28;;;;;;;;;;4975451;28;20041;-23
2021/12/11 12:12:12;;;;;;;27.88;4.70;;;;;;;;;;4975546;28;20038;-22
2021/12/11 12:14:39;;;;;;;28.30;4.63;;;;;;;;;;4975361;28;20094;-21
2021/12/11 12:17:06;;;;;;;31.77;4.53;;;;;;;;;;4975005;28;20027;-23
2021/12/11 12:19:32;;;;;;;30.75;5.18;;;;;;;;;;4975284;28;20031;-22
2021/12/11 12:22:02;;;;;;;32.72;5.03;;;;;;;;;;4958271;28;20027;-22
2021/12/11 12:24:31;;;;;;;22.27;5.32;;;;;;;;;;4975247;28;20098;-21
2021/12/11 12:26:57;;;;;;;17.30;4.35;;;;;;;;;;4958830;28;20122;-22
2021/12/11 12:29:24;;;;;;;30.65;7.53;;;;;;;;;;4974984;28;20027;-22
2021/12/11 12:31:52;;;;;;;30.63;5.10;;;;;;;;;;4975368;28;20039;-22
2021/12/11 12:34:19;;;;;;;26.20;4.50;;;;;;;;;;4975230;28;20026;-22
2021/12/11 12:36:45;;;;;;;28.08;4.20;;;;;;;;;;4975071;28;20397;-22
2021/12/11 12:39:12;;;;;;;33.63;5.18;;;;;;;;;;4975055;28;20035;-22
2021/12/11 12:41:45;;;;;;;32.40;4.38;;;;;;;;;;4975249;28;20035;-23
2021/12/11 12:46:55;;;;;;;30.80;4.28;;;;;;;;;;4976391;28;20031;-22
2021/12/11 12:49:22;;;;;;;38.45;5.85;;;;;;;;;;4978829;28;20110;-22
2021/12/11 12:51:49;;;;;;;35.30;5.53;;;;;;;;;;4978877;28;20026;-22
2021/12/11 12:54:17;;;;;;;26.50;4.60;;;;;;;;;;4979287;28;20046;-22
2021/12/11 12:56:46;;;;;;;40.88;5.20;;;;;;;;;;4978679;28;20056;-22
2021/12/11 12:59:18;;;;;;;36.30;6.10;;;;;;;;;;4979097;28;20085;-23
2021/12/11 13:01:49;;;;;;;32.85;5.05;;;;;;;;;;4978940;28;20034;-22
2021/12/11 13:04:17;;;;;;;35.42;5.35;;;;;;;;;;4961273;28;20050;-22
2021/12/11 13:06:51;;;;;;;39.75;5.93;;;;;;;;;;4978711;28;20340;-23
2021/12/11 13:09:25;;;;;;;44.13;5.07;;;;;;;;;;4978295;28;20106;-23
2021/12/11 13:11:55;;;;;;;32.47;4.55;;;;;;;;;;4978360;28;20027;-22
2021/12/11 13:14:22;;;;;;;33.70;5.85;;;;;;;;;;4978245;28;20041;-21
2021/12/11 13:16:50;;;;;;;32.40;4.28;;;;;;;;;;4961504;28;20030;-22
2021/12/11 13:19:20;;;;;;;39.47;5.10;;;;;;;;;;4978289;28;20047;-22
2021/12/11 13:21:50;;;;;;;28.33;5.78;;;;;;;;;;4978368;28;20451;-21
2021/12/11 13:24:17;;;;;;;37.30;5.43;;;;;;;;;;4978200;28;20026;-21
2021/12/11 13:26:48;;;;;;;40.20;4.38;;;;;;;;;;4978150;28;20069;-22
2021/12/11 13:29:15;;;;;;;29.40;5.10;;;;;;;;;;4978337;28;20023;-22
2021/12/11 13:31:50;;;;;;;38.45;5.32;;;;;;;;;;4978129;28;20414;-22
2021/12/11 13:34:18;;;;;;;51.63;8.23;;;;;;;;;;4960967;28;20026;-22
2021/12/11 13:36:44;;;;;;;24.63;5.00;;;;;;;;;;4978161;28;20387;-22
2021/12/11 13:39:12;;;;;;;24.00;3.90;;;;;;;;;;4978178;28;20058;-22
2021/12/11 13:41:41;;;;;;;39.20;5.60;;;;;;;;;;4978379;28;20105;-22
2021/12/11 13:44:08;;;;;;;39.38;5.38;;;;;;;;;;4978049;28;20346;-22
2021/12/11 13:46:34;;;;;;;39.47;4.40;;;;;;;;;;4977988;28;20050;-23
2021/12/11 13:49:01;;;;;;;43.08;6.10;;;;;;;;;;4977591;28;20118;-22
2021/12/11 13:51:31;;;;;;;49.53;6.78;;;;;;;;;;4977916;28;20069;-22
2021/12/11 13:53:58;;;;;;;33.30;7.53;;;;;;;;;;4977406;28;20034;-22
2021/12/11 13:56:31;;;;;;;49.95;6.57;;;;;;;;;;4977391;28;20114;-24
2021/12/11 13:58:57;;;;;;;46.00;5.88;;;;;;;;;;4977668;28;20037;-21
2021/12/11 14:01:25;;;;;;;41.00;5.60;;;;;;;;;;4977780;28;20339;-21
2021/12/11 14:03:52;;;;;;;33.60;4.85;;;;;;;;;;4977251;28;20057;-23
2021/12/11 14:06:21;;;;;;;44.55;5.07;;;;;;;;;;4977723;28;20085;-23
2021/12/11 14:08:47;;;;;;;39.15;5.97;;;;;;;;;;4960649;28;20462;-22
2021/12/11 14:11:15;;;;;;;33.97;4.20;;;;;;;;;;4977330;28;20049;-22
2021/12/11 14:13:41;;;;;;;32.42;5.68;;;;;;;;;;4977566;28;20069;-25
2021/12/11 14:16:10;;;;;;;29.08;4.57;;;;;;;;;;4960238;28;20097;-29
2021/12/11 14:18:36;;;;;;;23.48;6.30;;;;;;;;;;4977476;28;20109;-22
2021/12/11 14:21:04;;;;;;;36.50;5.95;;;;;;;;;;4977251;28;20077;-22
2021/12/11 14:23:34;;;;;;;37.97;6.90;;;;;;;;;;4977083;28;20027;-22
2021/12/11 14:26:03;;;;;;;43.53;6.70;;;;;;;;;;4977036;28;20030;-22
2021/12/11 14:28:30;;;;;;;35.35;5.68;;;;;;;;;;4977268;28;20370;-22
2021/12/11 14:31:06;;;;;;;32.78;4.85;;;;;;;;;;4977443;28;20030;-22
2021/12/11 14:33:33;;;;;;;59.17;9.70;;;;;;;;;;4960699;28;20362;-23
2021/12/11 14:36:00;;;;;;;43.05;5.47;;;;;;;;;;4976756;28;20022;-21
2021/12/11 14:38:27;;;;;;;48.20;6.68;;;;;;;;;;4976552;28;20079;-23
2021/12/11 14:40:54;;;;;;;103.53;8.13;;;;;;;;;;4976958;28;20081;-22
2021/12/11 14:43:22;;;;;;;28.25;5.90;;;;;;;;;;4976704;28;20355;-22
2021/12/11 14:45:49;;;;;;;34.53;5.25;;;;;;;;;;4959366;28;20027;-24
2021/12/11 14:48:16;;;;;;;33.95;5.32;;;;;;;;;;4976536;28;20038;-23
2021/12/11 14:50:45;;;;;;;43.28;5.28;;;;;;;;;;4976667;28;20031;-22
2021/12/11 14:53:13;;;;;;;35.45;4.90;;;;;;;;;;4976229;28;20030;-22
2021/12/11 14:55:59;;;;;;;36.00;4.78;;;;;;;;;;4976512;28;20062;-22
2021/12/11 14:58:26;;;;;;;38.72;5.47;;;;;;;;;;4976764;28;20039;-22
2021/12/11 15:00:56;;;;;;;37.95;5.75;;;;;;;;;;4976819;28;20041;-21
2021/12/11 15:03:22;;;;;;;37.95;6.13;;;;;;;;;;4975861;28;20046;-23